createdAt,value
2019-01-06T00:00:48.109Z,945.18
2019-01-06T00:01:48.515Z,945.16
2019-01-06T00:02:49.612Z,945.25
2019-01-06T00:03:50.575Z,945.19
2019-01-06T00:04:51.262Z,945.19
2019-01-06T00:05:51.472Z,945.22
2019-01-06T00:06:52.232Z,945.24
2019-01-06T00:07:53.362Z,945.19
2019-01-06T00:08:53.607Z,945.2
2019-01-06T00:09:54.023Z,945.18
2019-01-06T00:10:54.432Z,945.16
2019-01-06T00:11:54.674Z,945.09
2019-01-06T00:12:55.069Z,945.12
2019-01-06T00:13:55.755Z,945.17
2019-01-06T00:14:56.449Z,945.22
2019-01-06T00:15:57.150Z,945.15
2019-01-06T00:16:57.559Z,945.13
2019-01-06T00:17:58.700Z,945.2
2019-01-06T00:18:59.701Z,945.24
2019-01-06T00:20:00.665Z,945.18
2019-01-06T00:21:01.074Z,945.15
2019-01-06T00:22:02.205Z,945.15
2019-01-06T00:23:02.463Z,945.17
2019-01-06T00:24:03.870Z,945.16
2019-01-06T00:25:04.561Z,945.26
2019-01-06T00:26:05.244Z,945.2
2019-01-06T00:27:05.655Z,945.17
2019-01-06T00:28:05.924Z,945.15
2019-01-06T00:29:06.609Z,945.1
2019-01-06T00:30:07.017Z,945.1
2019-01-06T00:31:07.820Z,945.2
2019-01-06T00:32:08.227Z,945.17
2019-01-06T00:33:08.490Z,945.25
2019-01-06T00:34:08.899Z,945.14
2019-01-06T00:35:09.862Z,945.12
2019-01-06T00:36:11.268Z,945.18
2019-01-06T00:37:12.400Z,945.2
2019-01-06T00:38:13.089Z,945.11
2019-01-06T00:39:14.217Z,945.12
2019-01-06T00:40:14.713Z,945.13
2019-01-06T00:41:15.715Z,945.19
2019-01-06T00:42:16.957Z,945.18
2019-01-06T00:43:17.792Z,945.21
2019-01-06T00:44:18.477Z,945.28
2019-01-06T00:45:19.607Z,945.21
2019-01-06T00:46:20.300Z,945.28
2019-01-06T00:47:21.706Z,945.28
2019-01-06T00:48:22.114Z,945.27
2019-01-06T00:49:22.359Z,945.21
2019-01-06T00:50:23.069Z,945.25
2019-01-06T00:51:23.760Z,945.3
2019-01-06T00:52:24.894Z,945.27
2019-01-06T00:53:25.771Z,945.31
2019-01-06T00:54:26.460Z,945.29
2019-01-06T00:55:26.891Z,945.27
2019-01-06T00:56:27.302Z,945.34
2019-01-06T00:57:27.746Z,945.34
2019-01-06T00:58:28.430Z,945.45
2019-01-06T00:59:29.839Z,945.32
2019-01-06T01:00:30.801Z,945.37
2019-01-06T01:01:31.483Z,945.4
2019-01-06T01:02:32.892Z,945.36
2019-01-06T01:03:33.309Z,945.39
2019-01-06T01:04:33.998Z,945.34
2019-01-06T01:05:34.410Z,945.33
2019-01-06T01:06:35.555Z,945.39
2019-01-06T01:07:36.799Z,945.39
2019-01-06T01:08:37.211Z,945.4
2019-01-06T01:09:37.619Z,945.46
2019-01-06T01:10:38.313Z,945.37
2019-01-06T01:11:38.723Z,945.42
2019-01-06T01:12:39.141Z,945.39
2019-01-06T01:13:39.953Z,945.41
2019-01-06T01:14:40.195Z,945.44
2019-01-06T01:15:40.893Z,945.42
2019-01-06T01:16:42.022Z,945.49
2019-01-06T01:17:43.154Z,945.45
2019-01-06T01:18:43.841Z,945.49
2019-01-06T01:19:44.250Z,945.46
2019-01-06T01:20:44.657Z,945.47
2019-01-06T01:21:45.627Z,945.54
2019-01-06T01:22:46.874Z,945.55
2019-01-06T01:23:47.555Z,945.53
2019-01-06T01:24:48.048Z,945.56
2019-01-06T01:25:49.179Z,945.5
2019-01-06T01:26:49.596Z,945.57
2019-01-06T01:27:50.005Z,945.54
2019-01-06T01:28:51.443Z,945.59
2019-01-06T01:29:51.921Z,945.54
2019-01-06T01:30:52.331Z,945.49
2019-01-06T01:31:53.470Z,945.58
2019-01-06T01:32:53.943Z,945.55
2019-01-06T01:33:54.761Z,945.58
2019-01-06T01:34:55.733Z,945.56
2019-01-06T01:35:56.861Z,945.59
2019-01-06T01:36:57.273Z,945.56
2019-01-06T01:37:57.681Z,945.55
2019-01-06T01:38:58.813Z,945.55
2019-01-06T01:39:59.220Z,945.59
2019-01-06T01:41:00.009Z,945.58
2019-01-06T01:42:00.417Z,945.55
2019-01-06T01:43:01.660Z,945.54
2019-01-06T01:44:02.341Z,945.53
2019-01-06T01:45:03.305Z,945.48
2019-01-06T01:46:04.432Z,945.51
2019-01-06T01:47:05.566Z,945.48
2019-01-06T01:48:05.978Z,945.56
2019-01-06T01:49:06.388Z,945.58
2019-01-06T01:50:07.518Z,945.56
2019-01-06T01:51:08.202Z,945.58
2019-01-06T01:52:08.611Z,945.65
2019-01-06T01:53:10.016Z,945.6
2019-01-06T01:54:10.575Z,945.63
2019-01-06T01:55:10.983Z,945.58
2019-01-06T01:56:11.727Z,945.6
2019-01-06T01:57:12.423Z,945.55
2019-01-06T01:58:13.385Z,945.65
2019-01-06T01:59:13.629Z,945.58
2019-01-06T02:00:14.908Z,945.59
2019-01-06T02:01:15.391Z,945.57
2019-01-06T02:02:16.422Z,945.59
2019-01-06T02:03:16.666Z,945.56
2019-01-06T02:04:17.761Z,945.59
2019-01-06T02:05:18.496Z,945.58
2019-01-06T02:06:19.185Z,945.58
2019-01-06T02:07:19.874Z,945.55
2019-01-06T02:08:20.840Z,945.56
2019-01-06T02:09:21.526Z,945.56
2019-01-06T02:10:22.212Z,945.6
2019-01-06T02:11:22.455Z,945.54
2019-01-06T02:12:23.899Z,945.49
2019-01-06T02:13:24.585Z,945.56
2019-01-06T02:14:25.274Z,945.53
2019-01-06T02:15:25.679Z,945.57
2019-01-06T02:16:26.719Z,945.57
2019-01-06T02:17:27.406Z,945.57
2019-01-06T02:18:27.817Z,945.6
2019-01-06T02:19:28.327Z,945.57
2019-01-06T02:20:29.289Z,945.52
2019-01-06T02:21:30.737Z,945.62
2019-01-06T02:22:31.421Z,945.55
2019-01-06T02:23:31.894Z,945.53
2019-01-06T02:24:32.291Z,945.61
2019-01-06T02:25:33.422Z,945.57
2019-01-06T02:26:34.131Z,945.64
2019-01-06T02:27:34.538Z,945.61
2019-01-06T02:28:35.222Z,945.55
2019-01-06T02:29:35.743Z,945.55
2019-01-06T02:30:36.153Z,945.59
2019-01-06T02:31:36.410Z,945.63
2019-01-06T02:32:36.661Z,945.65
2019-01-06T02:33:38.069Z,945.6
2019-01-06T02:34:38.899Z,945.6
2019-01-06T02:35:39.959Z,945.56
2019-01-06T02:36:40.642Z,945.57
2019-01-06T02:37:41.886Z,945.6
2019-01-06T02:38:43.123Z,945.56
2019-01-06T02:39:43.821Z,945.6
2019-01-06T02:40:44.804Z,945.65
2019-01-06T02:41:45.210Z,945.61
2019-01-06T02:42:45.553Z,945.63
2019-01-06T02:43:46.287Z,945.6
2019-01-06T02:44:47.131Z,945.56
2019-01-06T02:45:48.190Z,945.61
2019-01-06T02:46:48.894Z,945.55
2019-01-06T02:47:49.590Z,945.61
2019-01-06T02:48:50.018Z,945.56
2019-01-06T02:49:50.585Z,945.49
2019-01-06T02:50:51.611Z,945.48
2019-01-06T02:51:52.581Z,945.56
2019-01-06T02:52:53.559Z,945.48
2019-01-06T02:53:54.536Z,945.53
2019-01-06T02:54:55.416Z,945.53
2019-01-06T02:55:56.120Z,945.52
2019-01-06T02:56:57.102Z,945.54
2019-01-06T02:57:57.514Z,945.53
2019-01-06T02:58:58.253Z,945.54
2019-01-06T02:59:59.219Z,945.49
2019-01-06T03:01:00.057Z,945.49
2019-01-06T03:02:00.886Z,945.49
2019-01-06T03:03:01.410Z,945.47
2019-01-06T03:04:02.382Z,945.43
2019-01-06T03:05:03.229Z,945.41
2019-01-06T03:06:04.218Z,945.41
2019-01-06T03:07:04.740Z,945.4
2019-01-06T03:08:05.990Z,945.46
2019-01-06T03:09:06.480Z,945.35
2019-01-06T03:10:06.891Z,945.33
2019-01-06T03:11:07.405Z,945.37
2019-01-06T03:12:08.371Z,945.35
2019-01-06T03:13:09.070Z,945.36
2019-01-06T03:14:09.586Z,945.39
2019-01-06T03:15:09.977Z,945.35
2019-01-06T03:16:10.942Z,945.31
2019-01-06T03:17:11.628Z,945.35
2019-01-06T03:17:23.656Z,945.35
2019-01-06T03:18:24.486Z,945.32
2019-01-06T03:19:25.283Z,945.35
2019-01-06T03:20:25.695Z,945.38
2019-01-06T03:21:26.295Z,945.4
2019-01-06T03:22:26.703Z,945.36
2019-01-06T03:23:27.116Z,945.32
2019-01-06T03:24:28.357Z,945.31
2019-01-06T03:25:29.323Z,945.27
2019-01-06T03:26:29.733Z,945.35
2019-01-06T03:27:30.149Z,945.33
2019-01-06T03:28:31.279Z,945.29
2019-01-06T03:29:31.967Z,945.25
2019-01-06T03:30:32.949Z,945.32
2019-01-06T03:31:33.618Z,945.34
2019-01-06T03:32:34.944Z,945.31
2019-01-06T03:33:35.763Z,945.25
2019-01-06T03:34:36.456Z,945.23
2019-01-06T03:35:36.863Z,945.24
2019-01-06T03:36:37.554Z,945.21
2019-01-06T03:37:38.260Z,945.19
2019-01-06T03:38:38.495Z,945.17
2019-01-06T03:39:39.475Z,945.2
2019-01-06T03:40:39.883Z,945.22
2019-01-06T03:41:41.017Z,945.12
2019-01-06T03:42:41.557Z,945.18
2019-01-06T03:43:42.514Z,945.17
2019-01-06T03:44:42.928Z,945.22
2019-01-06T03:45:43.615Z,945.15
2019-01-06T03:46:44.304Z,945.12
2019-01-06T03:47:45.279Z,945.16
2019-01-06T03:48:46.228Z,945.15
2019-01-06T03:49:46.912Z,945.18
2019-01-06T03:50:47.878Z,945.18
2019-01-06T03:51:48.571Z,945.17
2019-01-06T03:52:48.980Z,945.19
2019-01-06T03:53:49.687Z,945.14
2019-01-06T03:54:50.737Z,945.18
2019-01-06T03:55:51.698Z,945.15
2019-01-06T03:56:52.672Z,945.16
2019-01-06T03:57:53.083Z,945.16
2019-01-06T03:58:53.896Z,945.11
2019-01-06T03:59:54.418Z,945.14
2019-01-06T04:00:55.116Z,945.12
2019-01-06T04:01:55.634Z,945.13
2019-01-06T04:02:56.601Z,945.08
2019-01-06T04:03:56.851Z,945.09
2019-01-06T04:04:57.371Z,945.1
2019-01-06T04:05:57.793Z,945.06
2019-01-06T04:06:58.760Z,945.03
2019-01-06T04:07:59.891Z,945.04
2019-01-06T04:09:01.165Z,945.04
2019-01-06T04:10:02.043Z,945.1
2019-01-06T04:11:02.304Z,945.09
2019-01-06T04:12:03.279Z,945.07
2019-01-06T04:13:03.695Z,945.08
2019-01-06T04:14:04.218Z,945.08
2019-01-06T04:15:04.920Z,945.02
2019-01-06T04:16:05.429Z,944.98
2019-01-06T04:17:05.676Z,945
2019-01-06T04:18:06.654Z,945.02
2019-01-06T04:19:07.131Z,945.05
2019-01-06T04:20:08.111Z,945.04
2019-01-06T04:21:08.351Z,944.98
2019-01-06T04:22:08.767Z,945.01
2019-01-06T04:23:09.580Z,945.04
2019-01-06T04:24:09.993Z,945.04
2019-01-06T04:25:10.508Z,945.06
2019-01-06T04:26:10.984Z,944.95
2019-01-06T04:27:11.389Z,944.96
2019-01-06T04:28:11.818Z,945.01
2019-01-06T04:29:12.631Z,945.07
2019-01-06T04:30:13.595Z,945.03
2019-01-06T04:31:14.701Z,944.99
2019-01-06T04:32:15.842Z,944.95
2019-01-06T04:33:16.528Z,945
2019-01-06T04:34:17.935Z,945.01
2019-01-06T04:35:18.624Z,944.99
2019-01-06T04:36:18.881Z,944.95
2019-01-06T04:37:19.120Z,944.97
2019-01-06T04:38:19.807Z,944.97
2019-01-06T04:39:20.771Z,944.97
2019-01-06T04:40:21.184Z,944.97
2019-01-06T04:41:21.873Z,944.89
2019-01-06T04:42:22.562Z,944.9
2019-01-06T04:43:23.692Z,944.92
2019-01-06T04:44:24.742Z,945.01
2019-01-06T04:45:25.559Z,944.9
2019-01-06T04:46:26.249Z,944.9
2019-01-06T04:47:26.553Z,945.05
2019-01-06T04:48:27.537Z,944.91
2019-01-06T04:49:28.386Z,944.98
2019-01-06T04:50:29.625Z,944.98
2019-01-06T04:51:30.591Z,945.03
2019-01-06T04:52:31.285Z,945.02
2019-01-06T04:53:32.256Z,945.06
2019-01-06T04:54:32.956Z,945.01
2019-01-06T04:55:33.627Z,945.05
2019-01-06T04:56:34.039Z,945.02
2019-01-06T04:57:34.447Z,945.02
2019-01-06T04:58:35.154Z,945.04
2019-01-06T04:59:35.993Z,945.05
2019-01-06T05:00:36.810Z,945
2019-01-06T05:01:38.238Z,945.04
2019-01-06T05:02:38.661Z,945.02
2019-01-06T05:03:39.095Z,945.03
2019-01-06T05:04:39.619Z,945.05
2019-01-06T05:05:39.895Z,945.07
2019-01-06T05:06:40.145Z,945.07
2019-01-06T05:07:40.669Z,945.06
2019-01-06T05:08:41.196Z,945.05
2019-01-06T05:09:42.593Z,945.08
2019-01-06T05:10:43.946Z,945.04
2019-01-06T05:11:44.930Z,945.07
2019-01-06T05:12:45.624Z,945.15
2019-01-06T05:13:46.316Z,945.06
2019-01-06T05:14:47.009Z,945.03
2019-01-06T05:15:47.478Z,945.01
2019-01-06T05:16:48.892Z,944.99
2019-01-06T05:17:49.589Z,944.97
2019-01-06T05:18:50.003Z,944.97
2019-01-06T05:19:51.412Z,944.97
2019-01-06T05:20:51.943Z,945.03
2019-01-06T05:21:52.359Z,945.03
2019-01-06T05:22:53.058Z,945.04
2019-01-06T05:23:53.592Z,945.1
2019-01-06T05:24:54.735Z,945.01
2019-01-06T05:25:55.710Z,945.08
2019-01-06T05:26:57.129Z,945.05
2019-01-06T05:27:58.275Z,945.15
2019-01-06T05:28:59.073Z,945.15
2019-01-06T05:30:00.456Z,945.14
2019-01-06T05:31:01.273Z,945.07
2019-01-06T05:32:02.425Z,945.04
2019-01-06T05:33:03.124Z,945.06
2019-01-06T05:34:04.087Z,945.1
2019-01-06T05:35:04.887Z,945.1
2019-01-06T05:36:05.861Z,945.05
2019-01-06T05:37:06.844Z,945.08
2019-01-06T05:38:07.260Z,945.04
2019-01-06T05:39:07.786Z,945.15
2019-01-06T05:40:08.645Z,945.07
2019-01-06T05:41:09.790Z,945.13
2019-01-06T05:42:10.203Z,945.11
2019-01-06T05:43:11.178Z,945.12
2019-01-06T05:44:12.147Z,945.13
2019-01-06T05:45:12.949Z,945.1
2019-01-06T05:46:13.972Z,945.14
2019-01-06T05:47:14.952Z,945.12
2019-01-06T05:48:15.643Z,945.12
2019-01-06T05:49:16.058Z,945.09
2019-01-06T05:50:17.169Z,945.06
2019-01-06T05:51:17.860Z,945.02
2019-01-06T05:52:19.271Z,945.06
2019-01-06T05:53:19.519Z,945.09
2019-01-06T05:54:20.490Z,945.04
2019-01-06T05:55:21.627Z,945.09
2019-01-06T05:56:22.316Z,945.11
2019-01-06T05:57:22.734Z,945.12
2019-01-06T05:58:23.469Z,945.11
2019-01-06T05:59:23.886Z,945.12
2019-01-06T06:00:25.002Z,945.1
2019-01-06T06:01:25.419Z,945.13
2019-01-06T06:02:26.557Z,945.02
2019-01-06T06:03:27.526Z,945.09
2019-01-06T06:04:28.668Z,945.1
2019-01-06T06:05:29.084Z,945.08
2019-01-06T06:06:29.547Z,944.99
2019-01-06T06:07:30.961Z,945.03
2019-01-06T06:08:31.653Z,945.06
2019-01-06T06:09:32.345Z,945.05
2019-01-06T06:10:33.445Z,945.06
2019-01-06T06:11:33.654Z,945.02
2019-01-06T06:12:34.355Z,945.07
2019-01-06T06:13:35.493Z,945.09
2019-01-06T06:14:36.474Z,945.11
2019-01-06T06:15:37.167Z,945.03
2019-01-06T06:16:37.857Z,945.09
2019-01-06T06:17:38.273Z,945.13
2019-01-06T06:18:39.418Z,945.1
2019-01-06T06:19:40.389Z,945.14
2019-01-06T06:20:41.488Z,945.12
2019-01-06T06:21:42.013Z,945.11
2019-01-06T06:22:43.148Z,945.13
2019-01-06T06:23:44.564Z,945.11
2019-01-06T06:24:44.980Z,945.14
2019-01-06T06:25:45.396Z,945.18
2019-01-06T06:26:46.089Z,945.11
2019-01-06T06:27:46.531Z,945.16
2019-01-06T06:28:46.946Z,945.19
2019-01-06T06:29:47.365Z,945.15
2019-01-06T06:30:47.749Z,945.16
2019-01-06T06:31:48.441Z,945.16
2019-01-06T06:32:49.580Z,945.19
2019-01-06T06:33:50.553Z,945.21
2019-01-06T06:34:50.806Z,945.25
2019-01-06T06:35:52.224Z,945.25
2019-01-06T06:36:52.918Z,945.28
2019-01-06T06:37:53.607Z,945.37
2019-01-06T06:38:54.131Z,945.29
2019-01-06T06:39:54.824Z,945.25
2019-01-06T06:40:55.098Z,945.28
2019-01-06T06:41:56.236Z,945.31
2019-01-06T06:42:57.374Z,945.21
2019-01-06T06:43:57.790Z,945.28
2019-01-06T06:44:58.204Z,945.25
2019-01-06T06:45:58.898Z,945.34
2019-01-06T06:47:00.033Z,945.27
2019-01-06T06:48:00.458Z,945.28
2019-01-06T06:49:01.877Z,945.31
2019-01-06T06:50:02.850Z,945.34
2019-01-06T06:51:03.714Z,945.35
2019-01-06T06:52:04.680Z,945.36
2019-01-06T06:53:05.096Z,945.37
2019-01-06T06:54:05.560Z,945.3
2019-01-06T06:55:06.085Z,945.32
2019-01-06T06:56:06.783Z,945.27
2019-01-06T06:57:07.758Z,945.3
2019-01-06T06:58:08.451Z,945.33
2019-01-06T06:59:08.870Z,945.22
2019-01-06T07:00:10.127Z,945.23
2019-01-06T07:01:10.675Z,945.3
2019-01-06T07:02:11.095Z,945.35
2019-01-06T07:03:11.511Z,945.28
2019-01-06T07:04:12.211Z,945.37
2019-01-06T07:05:13.373Z,945.41
2019-01-06T07:06:14.078Z,945.4
2019-01-06T07:07:15.050Z,945.4
2019-01-06T07:08:15.748Z,945.39
2019-01-06T07:09:16.888Z,945.38
2019-01-06T07:10:17.412Z,945.46
2019-01-06T07:11:18.270Z,945.4
2019-01-06T07:12:18.685Z,945.48
2019-01-06T07:13:19.855Z,945.5
2019-01-06T07:14:20.834Z,945.4
2019-01-06T07:15:21.526Z,945.42
2019-01-06T07:16:22.229Z,945.47
2019-01-06T07:17:22.931Z,945.57
2019-01-06T07:18:23.356Z,945.45
2019-01-06T07:19:24.327Z,945.5
2019-01-06T07:20:24.590Z,945.48
2019-01-06T07:21:25.744Z,945.47
2019-01-06T07:22:26.166Z,945.53
2019-01-06T07:23:27.305Z,945.49
2019-01-06T07:24:28.277Z,945.49
2019-01-06T07:25:29.251Z,945.53
2019-01-06T07:26:29.946Z,945.46
2019-01-06T07:27:31.091Z,945.5
2019-01-06T07:28:32.509Z,945.53
2019-01-06T07:29:33.202Z,945.55
2019-01-06T07:30:34.462Z,945.54
2019-01-06T07:31:35.595Z,945.52
2019-01-06T07:32:36.291Z,945.57
2019-01-06T07:33:37.437Z,945.65
2019-01-06T07:34:38.408Z,945.67
2019-01-06T07:35:38.616Z,945.62
2019-01-06T07:36:39.874Z,945.67
2019-01-06T07:37:40.646Z,945.64
2019-01-06T07:38:41.786Z,945.7
2019-01-06T07:39:42.768Z,945.73
2019-01-06T07:40:43.737Z,945.76
2019-01-06T07:41:44.858Z,945.75
2019-01-06T07:42:45.279Z,945.85
2019-01-06T07:43:46.252Z,945.8
2019-01-06T07:44:46.676Z,945.8
2019-01-06T07:45:47.369Z,945.82
2019-01-06T07:46:48.212Z,945.85
2019-01-06T07:47:48.907Z,945.79
2019-01-06T07:48:50.045Z,945.8
2019-01-06T07:49:50.543Z,945.8
2019-01-06T07:50:51.321Z,945.83
2019-01-06T07:51:52.145Z,945.81
2019-01-06T07:52:53.288Z,945.79
2019-01-06T07:53:53.709Z,945.88
2019-01-06T07:54:54.126Z,945.89
2019-01-06T07:55:54.543Z,945.88
2019-01-06T07:56:55.317Z,945.91
2019-01-06T07:57:56.023Z,945.93
2019-01-06T07:58:56.783Z,945.89
2019-01-06T07:59:57.336Z,945.97
2019-01-06T08:00:58.031Z,945.97
2019-01-06T08:01:59.176Z,945.98
2019-01-06T08:02:59.591Z,945.98
2019-01-06T08:04:00.732Z,946
2019-01-06T08:05:01.702Z,945.97
2019-01-06T08:06:02.429Z,945.89
2019-01-06T08:07:03.132Z,945.87
2019-01-06T08:08:03.599Z,945.79
2019-01-06T08:09:04.018Z,945.99
2019-01-06T08:10:04.999Z,945.98
2019-01-06T08:11:05.695Z,946.07
2019-01-06T08:12:06.552Z,946.04
2019-01-06T08:13:07.562Z,945.99
2019-01-06T08:14:07.983Z,946.04
2019-01-06T08:15:08.954Z,946.07
2019-01-06T08:16:09.649Z,946.04
2019-01-06T08:17:10.068Z,946.06
2019-01-06T08:18:10.487Z,946.09
2019-01-06T08:19:10.738Z,946.03
2019-01-06T08:20:11.879Z,946.12
2019-01-06T08:21:12.298Z,946.09
2019-01-06T08:22:13.472Z,946.12
2019-01-06T08:23:14.164Z,946.17
2019-01-06T08:24:14.864Z,946.2
2019-01-06T08:25:15.565Z,946.21
2019-01-06T08:26:15.880Z,946.13
2019-01-06T08:27:16.858Z,946.23
2019-01-06T08:28:17.829Z,946.29
2019-01-06T08:29:18.803Z,946.27
2019-01-06T08:30:20.223Z,946.33
2019-01-06T08:31:20.751Z,946.34
2019-01-06T08:32:21.463Z,946.29
2019-01-06T08:33:22.173Z,946.32
2019-01-06T08:34:22.592Z,946.27
2019-01-06T08:35:23.289Z,946.26
2019-01-06T08:36:23.986Z,946.33
2019-01-06T08:37:24.406Z,946.35
2019-01-06T08:38:25.552Z,946.36
2019-01-06T08:39:26.534Z,946.42
2019-01-06T08:40:26.952Z,946.3
2019-01-06T08:41:27.651Z,946.4
2019-01-06T08:42:28.802Z,946.39
2019-01-06T08:43:29.500Z,946.41
2019-01-06T08:44:30.644Z,946.36
2019-01-06T08:45:31.349Z,946.42
2019-01-06T08:46:32.514Z,946.41
2019-01-06T08:47:32.938Z,946.45
2019-01-06T08:48:33.386Z,946.34
2019-01-06T08:49:34.537Z,946.39
2019-01-06T08:50:35.687Z,946.37
2019-01-06T08:51:36.108Z,946.38
2019-01-06T08:52:36.490Z,946.44
2019-01-06T08:53:36.918Z,946.42
2019-01-06T08:54:37.338Z,946.44
2019-01-06T08:55:38.318Z,946.51
2019-01-06T08:56:39.753Z,946.46
2019-01-06T08:57:40.173Z,946.41
2019-01-06T08:58:41.163Z,946.42
2019-01-06T08:59:42.137Z,946.41
2019-01-06T09:00:44.729Z,946.4
2019-01-06T09:00:55.734Z,946.39
2019-01-06T09:01:57.257Z,946.39
2019-01-06T09:02:09.249Z,946.44
2019-01-06T09:03:09.833Z,946.43
2019-01-06T09:04:10.983Z,946.42
2019-01-06T09:05:11.766Z,946.39
2019-01-06T09:06:12.908Z,946.44
2019-01-06T09:07:13.164Z,946.38
2019-01-06T09:08:13.986Z,946.41
2019-01-06T09:09:14.757Z,946.42
2019-01-06T09:10:15.215Z,946.38
2019-01-06T09:11:15.913Z,946.41
2019-01-06T09:12:17.337Z,946.46
2019-01-06T09:13:17.915Z,946.4
2019-01-06T09:14:19.053Z,946.39
2019-01-06T09:15:19.756Z,946.47
2019-01-06T09:16:20.176Z,946.46
2019-01-06T09:17:20.592Z,946.46
2019-01-06T09:18:21.732Z,946.43
2019-01-06T09:19:22.434Z,946.37
2019-01-06T09:20:22.720Z,946.39
2019-01-06T09:21:23.862Z,946.49
2019-01-06T09:22:24.287Z,946.45
2019-01-06T09:23:24.839Z,946.51
2019-01-06T09:24:25.981Z,946.54
2019-01-06T09:25:26.481Z,946.45
2019-01-06T09:26:26.628Z,946.42
2019-01-06T09:27:27.603Z,946.44
2019-01-06T09:28:28.603Z,946.45
2019-01-06T09:29:29.021Z,946.5
2019-01-06T09:30:30.532Z,946.51
2019-01-06T09:31:31.303Z,946.53
2019-01-06T09:32:31.587Z,946.62
2019-01-06T09:33:32.427Z,946.63
2019-01-06T09:34:32.642Z,946.68
2019-01-06T09:35:33.783Z,946.59
2019-01-06T09:36:34.557Z,946.59
2019-01-06T09:37:35.256Z,946.62
2019-01-06T09:38:35.675Z,946.59
2019-01-06T09:39:36.374Z,946.62
2019-01-06T09:40:37.351Z,946.65
2019-01-06T09:41:37.770Z,946.66
2019-01-06T09:42:38.194Z,946.65
2019-01-06T09:43:38.751Z,946.67
2019-01-06T09:44:39.225Z,946.64
2019-01-06T09:45:40.197Z,946.59
2019-01-06T09:46:40.897Z,946.63
2019-01-06T09:47:42.036Z,946.67
2019-01-06T09:48:42.734Z,946.64
2019-01-06T09:49:44.153Z,946.7
2019-01-06T09:50:44.850Z,946.74
2019-01-06T09:51:46.251Z,946.76
2019-01-06T09:52:47.822Z,946.75
2019-01-06T09:53:48.657Z,946.74
2019-01-06T09:54:49.798Z,946.72
2019-01-06T09:55:50.220Z,946.76
2019-01-06T09:56:50.919Z,946.76
2019-01-06T09:57:51.338Z,946.74
2019-01-06T09:58:52.532Z,946.79
2019-01-06T09:59:53.233Z,946.74
2019-01-06T10:00:53.658Z,946.74
2019-01-06T10:01:54.935Z,946.77
2019-01-06T10:02:55.154Z,946.68
2019-01-06T10:03:56.000Z,946.69
2019-01-06T10:04:56.702Z,946.7
2019-01-06T10:05:57.404Z,946.64
2019-01-06T10:06:58.825Z,946.63
2019-01-06T10:07:59.075Z,946.67
2019-01-06T10:08:59.331Z,946.67
2019-01-06T10:10:00.028Z,946.72
2019-01-06T10:11:00.852Z,946.7
2019-01-06T10:12:01.548Z,946.71
2019-01-06T10:13:02.522Z,946.69
2019-01-06T10:14:03.496Z,946.69
2019-01-06T10:15:04.477Z,946.68
2019-01-06T10:16:04.893Z,946.7
2019-01-06T10:17:06.151Z,946.68
2019-01-06T10:18:06.630Z,946.71
2019-01-06T10:19:07.335Z,946.7
2019-01-06T10:20:08.309Z,946.65
2019-01-06T10:21:09.473Z,946.77
2019-01-06T10:22:10.174Z,946.74
2019-01-06T10:23:10.594Z,946.75
2019-01-06T10:24:11.369Z,946.75
2019-01-06T10:25:11.790Z,946.75
2019-01-06T10:26:12.490Z,946.74
2019-01-06T10:27:13.631Z,946.68
2019-01-06T10:28:14.617Z,946.8
2019-01-06T10:29:15.593Z,946.76
2019-01-06T10:30:16.028Z,946.8
2019-01-06T10:31:16.382Z,946.79
2019-01-06T10:32:18.196Z,946.86
2019-01-06T10:33:17.993Z,946.85
2019-01-06T10:34:18.277Z,946.79
2019-01-06T10:35:18.709Z,946.84
2019-01-06T10:36:19.979Z,946.88
2019-01-06T10:37:20.688Z,946.81
2019-01-06T10:38:21.381Z,946.85
2019-01-06T10:39:22.522Z,946.89
2019-01-06T10:40:22.942Z,946.86
2019-01-06T10:41:23.711Z,946.92
2019-01-06T10:42:24.487Z,946.92
2019-01-06T10:43:25.913Z,946.9
2019-01-06T10:44:26.320Z,946.91
2019-01-06T10:45:27.287Z,946.87
2019-01-06T10:46:27.988Z,946.84
2019-01-06T10:47:28.409Z,946.88
2019-01-06T10:48:28.829Z,946.91
2019-01-06T10:49:29.973Z,946.89
2019-01-06T10:50:30.950Z,946.84
2019-01-06T10:51:31.651Z,946.92
2019-01-06T10:52:31.903Z,946.93
2019-01-06T10:53:32.318Z,946.92
2019-01-06T10:54:33.062Z,946.95
2019-01-06T10:55:34.209Z,946.97
2019-01-06T10:56:34.631Z,946.92
2019-01-06T10:57:35.603Z,946.88
2019-01-06T10:58:36.944Z,946.9
2019-01-06T10:59:38.087Z,947.05
2019-01-06T11:00:38.518Z,946.93
2019-01-06T11:01:39.521Z,946.99
2019-01-06T11:02:40.542Z,946.95
2019-01-06T11:03:42.022Z,946.95
2019-01-06T11:04:42.299Z,946.89
2019-01-06T11:05:43.551Z,946.88
2019-01-06T11:06:44.248Z,946.91
2019-01-06T11:07:44.670Z,946.96
2019-01-06T11:08:45.812Z,946.97
2019-01-06T11:09:47.066Z,946.97
2019-01-06T11:10:47.519Z,946.96
2019-01-06T11:11:47.942Z,946.98
2019-01-06T11:12:49.088Z,946.99
2019-01-06T11:13:49.508Z,947.01
2019-01-06T11:14:50.067Z,947.02
2019-01-06T11:15:50.791Z,946.96
2019-01-06T11:16:51.262Z,947
2019-01-06T11:17:51.681Z,946.99
2019-01-06T11:18:52.101Z,946.99
2019-01-06T11:19:52.523Z,946.96
2019-01-06T11:20:53.499Z,947.01
2019-01-06T11:21:54.640Z,946.98
2019-01-06T11:22:55.782Z,946.94
2019-01-06T11:23:56.220Z,946.92
2019-01-06T11:24:57.368Z,946.93
2019-01-06T11:25:57.787Z,946.92
2019-01-06T11:26:59.788Z,946.96
2019-01-06T11:28:00.210Z,946.95
2019-01-06T11:29:01.187Z,947.02
2019-01-06T11:30:02.335Z,946.89
2019-01-06T11:31:03.035Z,946.88
2019-01-06T11:32:06.915Z,946.94
2019-01-06T11:32:16.047Z,946.91
2019-01-06T11:32:28.740Z,946.88
2019-01-06T11:32:40.486Z,946.9
2019-01-06T11:33:40.887Z,946.89
2019-01-06T11:34:41.311Z,946.92
2019-01-06T11:35:42.016Z,946.96
2019-01-06T11:36:42.433Z,946.93
2019-01-06T11:37:43.158Z,946.95
2019-01-06T11:38:45.099Z,946.94
2019-01-06T11:39:45.300Z,946.96
2019-01-06T11:40:45.719Z,946.96
2019-01-06T11:41:46.434Z,946.98
2019-01-06T11:42:46.683Z,946.97
2019-01-06T11:43:47.514Z,946.94
2019-01-06T11:44:48.657Z,946.95
2019-01-06T11:45:49.270Z,946.93
2019-01-06T11:46:49.977Z,946.94
2019-01-06T11:47:50.399Z,946.9
2019-01-06T11:48:51.092Z,946.96
2019-01-06T11:49:52.064Z,946.94
2019-01-06T11:50:52.762Z,946.97
2019-01-06T11:51:53.908Z,947
2019-01-06T11:52:54.331Z,947.04
2019-01-06T11:53:54.749Z,947.06
2019-01-06T11:54:55.484Z,947.04
2019-01-06T11:55:55.750Z,947.04
2019-01-06T11:56:56.173Z,947.06
2019-01-06T11:57:56.901Z,947.04
2019-01-06T11:58:57.615Z,947.05
2019-01-06T11:59:58.867Z,947.04
2019-01-06T12:00:59.912Z,947.09
2019-01-06T12:02:00.336Z,947.12
2019-01-06T12:03:00.623Z,947.1
2019-01-06T12:04:02.560Z,947.1
2019-01-06T12:04:13.668Z,947.08
2019-01-06T12:04:26.381Z,947.09
2019-01-06T12:04:37.607Z,947.09
2019-01-06T12:05:37.583Z,947.05
2019-01-06T12:06:38.730Z,947.1
2019-01-06T12:07:39.150Z,947.11
2019-01-06T12:08:41.598Z,947.18
2019-01-06T12:09:42.748Z,947.13
2019-01-06T12:10:43.308Z,947.04
2019-01-06T12:11:44.295Z,947.04
2019-01-06T12:12:44.503Z,947.15
2019-01-06T12:13:45.236Z,947.13
2019-01-06T12:14:45.660Z,947.01
2019-01-06T12:15:46.838Z,947
2019-01-06T12:16:47.814Z,947.06
2019-01-06T12:17:48.236Z,947.11
2019-01-06T12:18:51.081Z,947.08
2019-01-06T12:19:52.501Z,947.11
2019-01-06T12:20:53.117Z,947.07
2019-01-06T12:21:55.586Z,947.05
2019-01-06T12:22:07.335Z,947.06
2019-01-06T12:22:19.519Z,947.04
2019-01-06T12:22:32.041Z,947.06
2019-01-06T12:22:44.025Z,947.04
2019-01-06T12:22:55.379Z,947.05
2019-01-06T12:23:07.598Z,947.09
2019-01-06T12:23:19.196Z,947.05
2019-01-06T12:24:19.774Z,947.12
2019-01-06T12:25:20.918Z,947.09
2019-01-06T12:26:23.305Z,947.18
2019-01-06T12:27:23.564Z,947.19
2019-01-06T12:28:25.410Z,947.17